Time;durP1;ratioP1;P1;durP2;ratioP2;P2;SDS_P1;SDS_P2;PMS_P1;PMS_P2;Temp;Humidity;BMP_temperature;BMP_pressure;BME280_temperature;BME280_humidity;BME280_pressure;Samples;Min_cycle;Max_cycle;Signal;HPM_P1;HPM_P2
2021/03/07 00:00:50;;;;;;;6.90;4.90;;;3.10;80.90;;;;;;5012392;28;20211;-66
2021/03/07 00:03:15;;;;;;;9.30;5.43;;;3.10;79.60;;;;;;5019541;28;20176;-67
2021/03/07 00:05:42;;;;;;;7.00;5.10;;;2.90;81.10;;;;;;5022533;28;20184;-66
2021/03/07 00:08:07;;;;;;;7.90;4.73;;;2.80;81.20;;;;;;5026192;28;20196;-65
2021/03/07 00:10:33;;;;;;;7.17;4.47;;;2.80;82.80;;;;;;5025253;28;20426;-66
2021/03/07 00:12:59;;;;;;;9.83;5.53;;;2.80;83.60;;;;;;5029459;28;20629;-68
2021/03/07 00:15:24;;;;;;;7.73;5.40;;;2.70;83.00;;;;;;5014121;28;20213;-66
2021/03/07 00:17:51;;;;;;;5.97;4.37;;;2.80;84.40;;;;;;4999086;28;20180;-67
2021/03/07 00:20:20;;;;;;;8.03;5.30;;;2.80;83.50;;;;;;5017732;28;20294;-68
2021/03/07 00:22:46;;;;;;;9.27;5.27;;;2.90;83.90;;;;;;5019927;28;20419;-68
2021/03/07 00:25:13;;;;;;;8.93;5.30;;;2.90;82.50;;;;;;5015004;28;20498;-67
2021/03/07 00:27:39;;;;;;;5.73;4.40;;;2.80;81.60;;;;;;5024740;28;20423;-67
2021/03/07 00:30:11;;;;;;;7.37;4.30;;;2.80;81.90;;;;;;4998563;28;20425;-65
2021/03/07 00:32:37;;;;;;;10.90;4.97;;;2.70;86.00;;;;;;4981369;28;20191;-67
2021/03/07 00:35:04;;;;;;;7.37;5.23;;;2.60;85.90;;;;;;5015822;28;21653;-69
2021/03/07 00:37:30;;;;;;;8.53;4.97;;;2.50;86.80;;;;;;5010260;28;20267;-68
2021/03/07 00:39:55;;;;;;;7.63;5.30;;;2.40;88.10;;;;;;5010799;28;20470;-67
2021/03/07 00:42:21;;;;;;;8.07;5.17;;;2.40;87.60;;;;;;5000805;28;20411;-66
2021/03/07 00:44:46;;;;;;;6.83;4.67;;;2.50;89.70;;;;;;5017320;28;20180;-68
2021/03/07 00:47:14;;;;;;;6.80;5.40;;;2.50;88.00;;;;;;5026878;28;20180;-68
2021/03/07 00:49:40;;;;;;;7.47;5.17;;;2.50;88.20;;;;;;5020688;28;20303;-67
2021/03/07 00:52:05;;;;;;;7.50;5.17;;;2.50;87.90;;;;;;5014274;28;20867;-67
2021/03/07 00:54:31;;;;;;;6.87;5.67;;;2.50;87.30;;;;;;5030590;28;20176;-67
2021/03/07 00:56:57;;;;;;;8.33;5.37;;;2.40;88.60;;;;;;5015019;28;20180;-67
2021/03/07 00:59:23;;;;;;;9.70;5.97;;;2.40;89.30;;;;;;5030182;28;20520;-66
2021/03/07 01:01:49;;;;;;;10.83;5.57;;;2.30;89.30;;;;;;5033762;28;20183;-68
2021/03/07 01:04:15;;;;;;;9.30;5.57;;;2.40;88.50;;;;;;5018917;28;20781;-67
2021/03/07 01:06:41;;;;;;;10.10;5.80;;;2.40;89.50;;;;;;5032129;28;20179;-67
2021/03/07 01:09:07;;;;;;;12.33;6.30;;;2.30;88.50;;;;;;5021185;28;20179;-66
2021/03/07 01:11:32;;;;;;;8.83;6.13;;;2.30;89.60;;;;;;5033612;28;20180;-68
2021/03/07 01:13:58;;;;;;;10.60;6.83;;;2.30;89.50;;;;;;4998200;28;20267;-66
2021/03/07 01:16:24;;;;;;;16.70;8.07;;;2.30;88.60;;;;;;5032952;28;20221;-67
2021/03/07 01:18:50;;;;;;;14.17;7.47;;;2.30;89.90;;;;;;5033229;28;20502;-69
2021/03/07 01:21:16;;;;;;;14.40;7.47;;;2.30;90.60;;;;;;5029298;28;20269;-67
2021/03/07 01:23:42;;;;;;;14.57;7.40;;;2.20;90.70;;;;;;5024515;28;20653;-67
2021/03/07 01:26:07;;;;;;;9.37;6.10;;;2.30;90.70;;;;;;5032436;28;20176;-67
2021/03/07 01:28:33;;;;;;;10.30;6.67;;;2.20;91.10;;;;;;5033101;28;20167;-67
2021/03/07 01:30:59;;;;;;;9.17;5.53;;;2.10;91.50;;;;;;5015068;28;20238;-66
2021/03/07 01:33:25;;;;;;;10.77;6.50;;;2.10;91.90;;;;;;5029166;28;20199;-67
2021/03/07 01:35:50;;;;;;;11.37;6.20;;;2.00;92.40;;;;;;5015902;28;20177;-68
2021/03/07 01:38:16;;;;;;;8.67;6.07;;;1.90;92.30;;;;;;5030967;28;20180;-70
2021/03/07 01:40:44;;;;;;;9.03;5.87;;;1.80;92.10;;;;;;5024670;28;20684;-70
2021/03/07 01:43:12;;;;;;;13.27;6.27;;;1.80;92.70;;;;;;5027441;28;20348;-68
2021/03/07 01:45:38;;;;;;;8.60;5.40;;;1.80;93.30;;;;;;5013302;28;20485;-67
2021/03/07 01:48:10;;;;;;;9.00;6.00;;;1.90;92.60;;;;;;5014795;28;20799;-68
2021/03/07 01:50:44;;;;;;;8.40;5.47;;;2.00;93.00;;;;;;5013179;28;20427;-67
2021/03/07 01:53:10;;;;;;;8.10;5.30;;;2.00;92.20;;;;;;5012872;28;20412;-68
2021/03/07 01:55:38;;;;;;;8.07;5.83;;;1.90;92.20;;;;;;5013073;28;20435;-67
2021/03/07 01:58:22;;;;;;;7.47;5.30;;;1.80;93.30;;;;;;5013446;28;20169;-69
2021/03/07 02:00:48;;;;;;;8.90;5.47;;;1.80;92.10;;;;;;5012145;28;20463;-70
2021/03/07 02:03:14;;;;;;;11.67;5.63;;;1.80;92.20;;;;;;5012988;28;20412;-68
2021/03/07 02:05:40;;;;;;;7.50;4.97;;;1.80;92.60;;;;;;5012650;28;20765;-68
2021/03/07 02:08:06;;;;;;;8.97;5.57;;;1.80;93.00;;;;;;5012844;28;20510;-69
2021/03/07 02:10:43;;;;;;;11.47;5.67;;;1.80;92.00;;;;;;5012375;28;20653;-69
2021/03/07 02:13:18;;;;;;;9.60;5.63;;;1.70;93.20;;;;;;5012702;28;20905;-69
2021/03/07 02:15:47;;;;;;;12.53;5.90;;;1.80;93.60;;;;;;5012806;28;20418;-68
2021/03/07 02:18:14;;;;;;;12.40;7.00;;;1.70;94.00;;;;;;5012769;28;20904;-67
2021/03/07 02:20:50;;;;;;;11.40;6.33;;;1.70;93.40;;;;;;5012113;28;20963;-69
2021/03/07 02:23:21;;;;;;;15.40;7.60;;;1.60;93.40;;;;;;5011735;28;20454;-68
2021/03/07 02:25:48;;;;;;;12.53;6.63;;;1.50;93.00;;;;;;5012514;28;20420;-69
2021/03/07 02:28:14;;;;;;;13.53;7.50;;;1.30;92.80;;;;;;5012354;28;20412;-67
2021/03/07 02:30:39;;;;;;;13.17;6.77;;;1.20;94.50;;;;;;5012226;28;20430;-66
2021/03/07 02:33:19;;;;;;;10.20;5.10;;;1.20;95.20;;;;;;5012177;28;20204;-67
2021/03/07 02:36:09;;;;;;;12.00;6.57;;;1.10;95.10;;;;;;5012091;28;20629;-69
2021/03/07 02:38:37;;;;;;;11.13;6.10;;;1.00;95.30;;;;;;5002230;28;20450;-68
2021/03/07 02:41:10;;;;;;;11.93;6.33;;;1.00;96.20;;;;;;5011903;28;20940;-68
2021/03/07 02:43:42;;;;;;;14.20;7.40;;;1.10;96.90;;;;;;5012089;28;20743;-68
2021/03/07 02:46:13;;;;;;;16.40;8.30;;;0.90;94.80;;;;;;5011740;28;20967;-68
2021/03/07 02:48:39;;;;;;;18.30;8.70;;;0.90;96.40;;;;;;5005318;28;20475;-68
2021/03/07 02:51:08;;;;;;;14.60;7.53;;;0.90;97.60;;;;;;4992506;28;20439;-67
2021/03/07 02:53:35;;;;;;;18.57;8.50;;;1.00;95.90;;;;;;4992434;28;20543;-70
2021/03/07 02:56:08;;;;;;;19.07;8.40;;;0.90;95.30;;;;;;4992298;28;20503;-69
2021/03/07 02:58:36;;;;;;;13.70;7.43;;;0.90;96.00;;;;;;4992549;28;20818;-68
2021/03/07 03:01:05;;;;;;;16.87;8.13;;;1.00;96.40;;;;;;4974662;28;20463;-69
2021/03/07 03:03:41;;;;;;;10.80;6.33;;;0.90;94.20;;;;;;4993672;28;20455;-69
2021/03/07 03:06:09;;;;;;;8.93;5.57;;;0.90;97.10;;;;;;4992122;28;20783;-67
2021/03/07 03:08:35;;;;;;;8.67;5.20;;;1.00;95.90;;;;;;4992144;28;20902;-68
2021/03/07 03:11:03;;;;;;;8.03;5.10;;;1.10;95.20;;;;;;4986709;28;20415;-69
2021/03/07 03:13:32;;;;;;;8.33;4.80;;;1.20;95.60;;;;;;5011745;28;20434;-68
2021/03/07 03:15:59;;;;;;;8.80;5.20;;;1.30;95.00;;;;;;5011472;28;20411;-70
2021/03/07 03:18:28;;;;;;;7.67;4.80;;;1.30;95.10;;;;;;5011492;28;20418;-68
2021/03/07 03:20:59;;;;;;;8.43;5.80;;;1.20;95.00;;;;;;5011413;28;20908;-68
2021/03/07 03:23:24;;;;;;;7.00;5.07;;;1.20;94.40;;;;;;5011541;28;20412;-70
2021/03/07 03:25:51;;;;;;;5.97;4.93;;;1.20;94.40;;;;;;5008960;28;20449;-67
2021/03/07 03:28:21;;;;;;;7.80;5.40;;;1.30;95.20;;;;;;5011202;28;20183;-67
2021/03/07 03:30:47;;;;;;;7.70;5.47;;;1.30;94.00;;;;;;5011332;28;20509;-68
2021/03/07 03:33:12;;;;;;;9.70;5.70;;;1.20;95.10;;;;;;5011147;28;20411;-67
2021/03/07 03:35:39;;;;;;;9.40;6.03;;;1.10;94.20;;;;;;5011258;28;20307;-68
2021/03/07 03:38:05;;;;;;;8.23;5.60;;;1.10;95.60;;;;;;4991715;28;20255;-69
2021/03/07 03:40:32;;;;;;;13.27;6.70;;;1.10;95.10;;;;;;5010219;28;20450;-68
2021/03/07 03:43:08;;;;;;;12.73;6.43;;;1.00;95.50;;;;;;5010997;28;20286;-67
2021/03/07 03:45:36;;;;;;;12.50;6.40;;;0.90;94.40;;;;;;5010838;28;20513;-68
2021/03/07 03:48:14;;;;;;;12.20;6.47;;;0.90;96.40;;;;;;4998667;28;20517;-68
2021/03/07 03:50:47;;;;;;;11.27;6.23;;;1.00;96.80;;;;;;5010881;28;20715;-67
2021/03/07 03:53:18;;;;;;;12.70;6.50;;;1.10;95.70;;;;;;5010795;28;20419;-69
2021/03/07 03:55:50;;;;;;;10.77;5.60;;;1.20;94.80;;;;;;5010811;28;20419;-69
2021/03/07 03:58:19;;;;;;;11.70;5.73;;;1.20;95.30;;;;;;4993169;28;20411;-69
2021/03/07 04:00:45;;;;;;;8.87;5.40;;;1.20;94.90;;;;;;5010724;28;20490;-68
2021/03/07 04:03:14;;;;;;;5.27;4.43;;;1.20;94.60;;;;;;5010815;28;20440;-70
2021/03/07 04:05:44;;;;;;;7.20;4.87;;;1.20;94.60;;;;;;5010835;28;20419;-68
2021/03/07 04:08:09;;;;;;;6.43;4.73;;;1.20;94.00;;;;;;5010838;28;20477;-69
2021/03/07 04:10:36;;;;;;;5.93;4.53;;;1.20;93.60;;;;;;5010549;28;20908;-69
2021/03/07 04:13:03;;;;;;;9.80;4.80;;;1.30;93.60;;;;;;4993133;28;20200;-69
2021/03/07 04:15:29;;;;;;;8.17;4.53;;;1.30;94.30;;;;;;5010542;28;20411;-71
2021/03/07 04:17:56;;;;;;;6.27;3.90;;;1.30;94.00;;;;;;5010524;28;20419;-68
2021/03/07 04:20:25;;;;;;;6.80;4.67;;;1.30;93.50;;;;;;5010517;28;20447;-68
2021/03/07 04:22:51;;;;;;;6.67;5.07;;;1.30;92.70;;;;;;5010919;28;20556;-68
2021/03/07 04:25:16;;;;;;;5.80;4.33;;;1.20;93.00;;;;;;5013789;28;20766;-69
2021/03/07 04:27:44;;;;;;;9.17;4.53;;;1.10;93.70;;;;;;5014596;28;20172;-69
2021/03/07 04:30:11;;;;;;;7.37;4.70;;;1.10;93.80;;;;;;5014466;28;20179;-67
2021/03/07 04:32:37;;;;;;;5.63;4.27;;;1.10;93.60;;;;;;5014445;28;20790;-68
2021/03/07 04:35:04;;;;;;;6.50;4.83;;;1.00;93.80;;;;;;5014507;28;20419;-69
2021/03/07 04:37:30;;;;;;;5.80;4.20;;;1.10;93.60;;;;;;5014678;28;20905;-69
2021/03/07 04:39:56;;;;;;;7.33;5.13;;;1.10;94.00;;;;;;5014160;28;20455;-70
2021/03/07 04:42:22;;;;;;;6.03;4.60;;;1.00;93.20;;;;;;5014455;28;20423;-69
2021/03/07 04:44:48;;;;;;;8.20;4.77;;;1.00;94.50;;;;;;5013982;28;20242;-69
2021/03/07 04:47:14;;;;;;;6.10;4.67;;;1.00;94.30;;;;;;5014269;28;20455;-68
2021/03/07 04:49:40;;;;;;;7.27;4.60;;;1.00;94.00;;;;;;5001022;28;20224;-66
2021/03/07 04:52:06;;;;;;;7.90;5.10;;;1.00;94.40;;;;;;4994621;28;20470;-68
2021/03/07 04:54:31;;;;;;;5.83;4.53;;;1.00;94.20;;;;;;5001219;28;20266;-68
2021/03/07 04:56:57;;;;;;;6.17;4.73;;;1.10;94.70;;;;;;5001292;28;20181;-68
2021/03/07 04:59:23;;;;;;;9.90;5.57;;;1.00;94.20;;;;;;4994500;28;20177;-67
2021/03/07 05:01:48;;;;;;;6.53;5.13;;;1.10;93.50;;;;;;4994099;28;20196;-68
2021/03/07 05:04:14;;;;;;;8.47;5.83;;;1.00;92.80;;;;;;4994307;28;20231;-68
2021/03/07 05:06:41;;;;;;;8.37;5.50;;;1.00;93.70;;;;;;5010561;28;20176;-67
2021/03/07 05:09:08;;;;;;;7.87;4.87;;;1.00;94.00;;;;;;5013864;28;20235;-68
2021/03/07 05:11:34;;;;;;;6.33;4.87;;;0.90;94.10;;;;;;5013614;28;20426;-68
2021/03/07 05:14:00;;;;;;;6.13;4.60;;;0.90;94.00;;;;;;4996783;28;20810;-68
2021/03/07 05:16:28;;;;;;;7.37;4.77;;;0.90;93.80;;;;;;5013090;28;20792;-68
2021/03/07 05:18:53;;;;;;;7.00;4.83;;;0.70;93.20;;;;;;5006556;28;20413;-68
2021/03/07 05:21:19;;;;;;;10.97;4.73;;;0.70;95.30;;;;;;4994008;28;20463;-68
2021/03/07 05:23:45;;;;;;;6.93;4.50;;;0.80;95.20;;;;;;4993860;28;20173;-68
2021/03/07 05:26:10;;;;;;;7.53;4.63;;;0.80;95.10;;;;;;4993827;28;20590;-68
2021/03/07 05:28:36;;;;;;;7.70;4.73;;;0.80;94.90;;;;;;5003495;28;20176;-68
2021/03/07 05:31:03;;;;;;;6.33;4.87;;;0.90;95.70;;;;;;4996809;28;20653;-68
2021/03/07 05:33:29;;;;;;;8.23;5.13;;;0.90;94.60;;;;;;5011367;28;20733;-68
2021/03/07 05:35:54;;;;;;;6.23;4.53;;;0.80;95.00;;;;;;5012196;28;20502;-69
2021/03/07 05:38:21;;;;;;;7.13;4.47;;;0.70;95.70;;;;;;5012417;28;20180;-70
2021/03/07 05:40:46;;;;;;;6.40;4.57;;;0.60;94.10;;;;;;4993384;28;20211;-68
2021/03/07 05:43:12;;;;;;;5.80;4.57;;;0.70;96.00;;;;;;4999742;28;20407;-69
2021/03/07 05:45:38;;;;;;;8.17;5.23;;;0.70;94.00;;;;;;5013113;28;20242;-67
2021/03/07 05:48:04;;;;;;;6.00;4.60;;;0.70;95.50;;;;;;5014209;28;20216;-68
2021/03/07 05:50:30;;;;;;;6.10;4.60;;;0.70;94.30;;;;;;5013146;28;20184;-68
2021/03/07 05:52:57;;;;;;;5.80;4.70;;;0.60;95.20;;;;;;5013173;28;20468;-68
2021/03/07 05:55:24;;;;;;;6.80;4.57;;;0.50;94.10;;;;;;5013091;28;20180;-69
2021/03/07 05:57:50;;;;;;;6.23;4.40;;;0.40;95.20;;;;;;5012592;28;20489;-68
2021/03/07 06:00:18;;;;;;;5.50;4.40;;;0.20;94.80;;;;;;5012922;28;20948;-68
2021/03/07 06:02:43;;;;;;;5.17;4.23;;;0.10;94.80;;;;;;4995260;28;20180;-68
2021/03/07 06:05:10;;;;;;;7.13;4.93;;;-0.10;96.10;;;;;;5012892;28;20412;-69
2021/03/07 06:07:36;;;;;;;9.37;4.47;;;-0.20;96.70;;;;;;5012455;28;20550;-68
2021/03/07 06:10:21;;;;;;;5.63;4.47;;;-0.20;97.20;;;;;;5012914;28;20427;-69
2021/03/07 06:13:04;;;;;;;5.57;4.60;;;-0.20;96.60;;;;;;5012194;28;20534;-69
2021/03/07 06:15:31;;;;;;;7.40;4.83;;;-0.30;96.90;;;;;;5012740;28;20415;-67
2021/03/07 06:17:56;;;;;;;7.43;4.83;;;-0.30;97.40;;;;;;5012950;28;20431;-68
2021/03/07 06:20:28;;;;;;;6.47;4.73;;;-0.40;97.40;;;;;;5012086;28;20824;-68
2021/03/07 06:23:00;;;;;;;6.47;4.87;;;-0.40;97.70;;;;;;5012347;28;20196;-66
2021/03/07 06:25:27;;;;;;;6.33;4.87;;;-0.50;97.60;;;;;;5012113;28;20423;-68
2021/03/07 06:27:54;;;;;;;7.00;4.60;;;-0.40;98.10;;;;;;5012518;28;20428;-68
2021/03/07 06:30:24;;;;;;;6.33;4.80;;;-0.50;97.60;;;;;;5012119;28;20546;-67
2021/03/07 06:32:53;;;;;;;11.37;5.03;;;-0.40;97.30;;;;;;5012082;28;20909;-67
2021/03/07 06:35:28;;;;;;;6.70;4.67;;;-0.20;98.40;;;;;;5011983;28;20419;-67
2021/03/07 06:38:05;;;;;;;6.73;4.87;;;-0.10;97.70;;;;;;5012034;28;20786;-70
2021/03/07 06:40:40;;;;;;;7.47;4.97;;;0.00;98.10;;;;;;5011052;28;20451;-69
2021/03/07 06:43:20;;;;;;;7.90;5.00;;;0.20;98.10;;;;;;5011474;28;20404;-68
2021/03/07 06:45:46;;;;;;;6.77;4.80;;;0.40;97.90;;;;;;5011970;28;20426;-69
2021/03/07 06:48:12;;;;;;;8.10;4.90;;;0.50;96.60;;;;;;5012797;28;20411;-68
2021/03/07 06:50:58;;;;;;;6.43;4.90;;;0.50;97.10;;;;;;5011873;28;20422;-68
2021/03/07 06:53:41;;;;;;;7.30;5.37;;;0.60;96.50;;;;;;5011650;28;20409;-66
2021/03/07 06:56:07;;;;;;;7.73;5.07;;;0.70;96.90;;;;;;5011632;28;20506;-69
2021/03/07 06:58:33;;;;;;;9.43;5.33;;;1.00;97.60;;;;;;5011776;28;20506;-68
2021/03/07 07:00:59;;;;;;;9.07;5.50;;;1.20;97.00;;;;;;5011785;28;20602;-69
2021/03/07 07:03:25;;;;;;;5.97;4.70;;;1.30;94.90;;;;;;5011800;28;20177;-68
2021/03/07 07:05:53;;;;;;;8.73;4.80;;;1.20;93.60;;;;;;5011379;28;20454;-68
2021/03/07 07:08:39;;;;;;;7.20;5.30;;;1.10;93.20;;;;;;5011788;28;20523;-69
2021/03/07 07:11:06;;;;;;;6.77;4.33;;;1.00;94.60;;;;;;5011395;28;20442;-69
2021/03/07 07:13:45;;;;;;;10.80;5.13;;;1.00;93.50;;;;;;5011672;28;20522;-68
2021/03/07 07:16:12;;;;;;;8.27;5.00;;;0.90;93.90;;;;;;5011421;28;20415;-69
2021/03/07 07:18:40;;;;;;;9.00;4.83;;;0.90;95.10;;;;;;5011495;28;20416;-69
2021/03/07 07:21:16;;;;;;;6.63;4.77;;;0.90;95.30;;;;;;5010835;28;20447;-69
2021/03/07 07:23:42;;;;;;;6.33;4.73;;;0.90;95.10;;;;;;5010517;28;20437;-68
2021/03/07 07:26:09;;;;;;;6.07;5.07;;;0.90;95.20;;;;;;5011360;28;20498;-70
2021/03/07 07:28:36;;;;;;;6.87;4.40;;;1.00;95.70;;;;;;5011434;28;20256;-68
2021/03/07 07:31:15;;;;;;;7.70;5.10;;;1.20;96.20;;;;;;5010999;28;20454;-68
2021/03/07 07:34:01;;;;;;;8.67;5.00;;;1.40;94.10;;;;;;5011036;28;20419;-70
2021/03/07 07:36:40;;;;;;;7.07;4.90;;;1.50;93.90;;;;;;5010733;28;20420;-69
2021/03/07 07:39:11;;;;;;;9.30;4.60;;;1.70;92.20;;;;;;5010723;28;20768;-69
2021/03/07 07:41:40;;;;;;;6.87;5.20;;;1.90;91.40;;;;;;5010921;28;20920;-66
2021/03/07 07:44:13;;;;;;;7.23;4.13;;;2.00;91.50;;;;;;5010723;28;20422;-67
2021/03/07 07:47:03;;;;;;;8.43;5.10;;;2.20;89.50;;;;;;5011001;28;20530;-68
2021/03/07 07:49:48;;;;;;;5.73;4.27;;;2.30;89.00;;;;;;4994142;28;20459;-68
2021/03/07 07:52:30;;;;;;;5.50;4.57;;;2.50;87.00;;;;;;5010586;28;20418;-68
2021/03/07 07:55:00;;;;;;;7.77;4.03;;;2.70;86.60;;;;;;5010787;28;20498;-70
2021/03/07 07:57:35;;;;;;;6.03;4.30;;;2.80;84.20;;;;;;5010564;28;20411;-69
2021/03/07 08:00:13;;;;;;;5.80;4.03;;;3.00;81.90;;;;;;5010148;28;20466;-67
2021/03/07 08:02:46;;;;;;;5.53;3.90;;;3.10;79.20;;;;;;5010550;28;20486;-67
2021/03/07 08:05:21;;;;;;;6.23;4.33;;;3.30;78.60;;;;;;5010734;28;20493;-70
2021/03/07 08:07:58;;;;;;;4.97;3.97;;;3.30;81.40;;;;;;5010638;28;20414;-68
2021/03/07 08:10:36;;;;;;;6.10;4.30;;;3.30;76.80;;;;;;5010372;28;20458;-69
2021/03/07 08:13:27;;;;;;;6.00;4.00;;;3.30;77.90;;;;;;5010625;28;20781;-67
2021/03/07 08:15:53;;;;;;;10.70;4.70;;;3.50;78.60;;;;;;5010636;28;20838;-69
2021/03/07 08:18:21;;;;;;;5.37;4.20;;;3.50;75.20;;;;;;5010264;28;20758;-68
2021/03/07 08:20:46;;;;;;;6.53;4.03;;;3.60;75.50;;;;;;5010153;28;20461;-70
2021/03/07 08:23:16;;;;;;;6.60;4.33;;;3.70;74.20;;;;;;5010280;28;20415;-71
2021/03/07 08:25:54;;;;;;;5.40;3.77;;;3.80;73.90;;;;;;5010038;28;20713;-69
2021/03/07 08:28:25;;;;;;;6.70;4.33;;;3.80;73.00;;;;;;5010658;28;20438;-69
2021/03/07 08:30:54;;;;;;;6.40;4.50;;;3.80;72.70;;;;;;5010382;28;20422;-69
2021/03/07 08:33:26;;;;;;;6.17;4.70;;;3.90;73.90;;;;;;5010529;28;20913;-68
2021/03/07 08:36:10;;;;;;;6.13;4.70;;;4.00;73.50;;;;;;5010468;28;20553;-68
2021/03/07 08:38:56;;;;;;;6.90;4.40;;;4.00;73.50;;;;;;5010403;28;20463;-70
2021/03/07 08:41:31;;;;;;;4.97;4.10;;;4.10;72.00;;;;;;4996015;28;20532;-69
2021/03/07 08:43:57;;;;;;;7.13;4.33;;;4.20;73.00;;;;;;5009807;28;20411;-69
2021/03/07 08:46:53;;;;;;;6.00;4.10;;;4.20;70.60;;;;;;5010172;28;20919;-68
2021/03/07 08:49:21;;;;;;;5.33;3.97;;;4.30;69.00;;;;;;5001091;28;20458;-67
2021/03/07 08:51:49;;;;;;;6.20;4.50;;;4.40;71.40;;;;;;5012116;28;20418;-70
2021/03/07 08:54:20;;;;;;;6.27;4.77;;;4.40;70.90;;;;;;5026530;28;20905;-68
2021/03/07 08:56:47;;;;;;;5.03;4.17;;;4.50;70.90;;;;;;5009915;28;20419;-70
2021/03/07 08:59:13;;;;;;;5.97;4.70;;;4.60;70.10;;;;;;5009838;28;20424;-68
2021/03/07 09:01:40;;;;;;;7.33;4.47;;;4.70;69.50;;;;;;5029757;28;20450;-68
2021/03/07 09:04:08;;;;;;;7.80;4.23;;;4.70;68.20;;;;;;5029585;28;20774;-67
2021/03/07 09:06:37;;;;;;;4.43;4.00;;;4.70;68.60;;;;;;5029649;28;20473;-67
2021/03/07 09:09:09;;;;;;;6.33;4.53;;;4.70;66.90;;;;;;5029881;28;20431;-69
2021/03/07 09:11:44;;;;;;;6.20;4.77;;;4.70;66.40;;;;;;5032717;28;20513;-68
2021/03/07 09:14:09;;;;;;;5.27;4.03;;;4.70;68.10;;;;;;5033081;28;20433;-69
2021/03/07 09:16:53;;;;;;;6.23;4.27;;;4.80;68.00;;;;;;5033113;28;20422;-69
2021/03/07 09:19:27;;;;;;;7.40;3.97;;;4.80;67.30;;;;;;5016673;28;20611;-70
2021/03/07 09:22:15;;;;;;;7.60;4.27;;;5.00;65.90;;;;;;5013526;28;20458;-69
2021/03/07 09:24:51;;;;;;;7.13;4.10;;;5.00;64.90;;;;;;5013630;28;20793;-69
2021/03/07 09:27:17;;;;;;;5.27;4.00;;;5.00;65.20;;;;;;5032408;28;20407;-68
2021/03/07 09:30:03;;;;;;;5.43;4.10;;;5.10;63.00;;;;;;5033156;28;20407;-69
2021/03/07 09:32:34;;;;;;;6.13;4.07;;;5.20;65.00;;;;;;5032799;28;20666;-69
2021/03/07 09:35:17;;;;;;;5.50;4.13;;;5.20;61.90;;;;;;5032895;28;20464;-70
2021/03/07 09:37:43;;;;;;;6.47;4.37;;;5.30;61.40;;;;;;5032895;28;20449;-68
2021/03/07 09:40:13;;;;;;;6.50;4.30;;;5.30;61.80;;;;;;5033049;28;20949;-69
2021/03/07 09:42:41;;;;;;;5.83;4.17;;;5.30;64.10;;;;;;5032593;28;20414;-68
2021/03/07 09:45:11;;;;;;;5.77;4.30;;;5.30;63.80;;;;;;5032846;28;20418;-68
2021/03/07 09:47:38;;;;;;;5.20;4.07;;;5.40;59.90;;;;;;5015313;28;20515;-68
2021/03/07 09:50:04;;;;;;;5.70;4.67;;;5.50;61.90;;;;;;5026101;28;20474;-68
2021/03/07 09:52:30;;;;;;;5.70;4.70;;;5.60;64.00;;;;;;5032624;28;20428;-69
2021/03/07 09:54:56;;;;;;;6.63;5.10;;;5.80;63.20;;;;;;5032374;28;20426;-68
2021/03/07 09:57:22;;;;;;;6.07;4.60;;;5.90;62.80;;;;;;5012859;28;20181;-69
2021/03/07 09:59:50;;;;;;;7.23;4.80;;;6.00;61.10;;;;;;5012554;28;20431;-67
2021/03/07 10:02:16;;;;;;;6.30;4.23;;;6.10;61.30;;;;;;5012726;28;20415;-67
2021/03/07 10:04:47;;;;;;;5.50;4.30;;;6.20;60.20;;;;;;5012978;28;20461;-66
2021/03/07 10:07:15;;;;;;;5.53;4.90;;;6.20;60.00;;;;;;5012808;28;20901;-69
2021/03/07 10:10:01;;;;;;;7.57;4.77;;;6.30;60.20;;;;;;5012916;28;20408;-67
2021/03/07 10:12:47;;;;;;;6.73;4.67;;;6.30;59.30;;;;;;5017740;28;20414;-69
2021/03/07 10:15:29;;;;;;;5.33;4.67;;;6.40;60.40;;;;;;5032063;28;20406;-68
2021/03/07 10:18:16;;;;;;;6.30;4.83;;;6.40;59.00;;;;;;5011397;28;20454;-70
2021/03/07 10:20:47;;;;;;;6.27;4.93;;;6.50;59.10;;;;;;5013342;28;20536;-68
2021/03/07 10:23:13;;;;;;;6.17;4.63;;;6.60;59.30;;;;;;5031429;28;20422;-69
2021/03/07 10:25:40;;;;;;;5.57;4.43;;;6.70;59.20;;;;;;5032147;28;20438;-69
2021/03/07 10:28:08;;;;;;;6.07;4.80;;;6.80;58.80;;;;;;4997451;28;20422;-69
2021/03/07 10:30:39;;;;;;;6.17;4.90;;;6.80;58.60;;;;;;5031902;28;20426;-68
2021/03/07 10:33:18;;;;;;;6.30;4.73;;;6.90;58.50;;;;;;5025106;28;20441;-68
2021/03/07 10:36:03;;;;;;;6.07;4.87;;;7.00;58.60;;;;;;4994680;28;20427;-69
2021/03/07 10:38:29;;;;;;;6.30;4.57;;;7.10;56.50;;;;;;5011773;28;20423;-67
2021/03/07 10:40:56;;;;;;;5.63;4.83;;;7.10;57.40;;;;;;5012068;28;20502;-69
2021/03/07 10:43:22;;;;;;;6.23;4.60;;;7.00;57.20;;;;;;5011741;28;20416;-69
2021/03/07 10:45:47;;;;;;;6.07;4.73;;;7.00;57.50;;;;;;5011885;28;20420;-68
2021/03/07 10:48:15;;;;;;;6.63;4.83;;;6.90;58.90;;;;;;5012079;28;20416;-69
2021/03/07 10:50:49;;;;;;;10.23;5.17;;;6.90;59.10;;;;;;5012110;28;20216;-68
2021/03/07 10:53:17;;;;;;;7.00;4.70;;;7.20;59.00;;;;;;5012050;28;20450;-69
2021/03/07 10:55:51;;;;;;;6.37;5.23;;;7.40;57.40;;;;;;5011582;28;20430;-69
2021/03/07 10:58:17;;;;;;;6.00;5.17;;;7.60;58.60;;;;;;5011773;28;20426;-66
2021/03/07 11:00:43;;;;;;;8.30;4.97;;;7.80;57.40;;;;;;5011411;28;20884;-68
2021/03/07 11:03:09;;;;;;;10.10;5.33;;;8.00;57.90;;;;;;5011592;28;20181;-69
2021/03/07 11:05:34;;;;;;;11.60;5.27;;;8.20;57.60;;;;;;5011353;28;20255;-68
2021/03/07 11:08:00;;;;;;;7.37;5.10;;;8.40;56.20;;;;;;5011502;28;20176;-69
2021/03/07 11:10:26;;;;;;;15.63;5.13;;;8.40;54.40;;;;;;5011412;28;20686;-67
2021/03/07 11:12:52;;;;;;;7.33;5.23;;;8.40;55.10;;;;;;5011252;28;20243;-67
2021/03/07 11:15:18;;;;;;;5.50;4.90;;;8.40;55.20;;;;;;5011461;28;20184;-67
2021/03/07 11:17:44;;;;;;;6.50;5.33;;;8.60;55.50;;;;;;5011226;28;20183;-68
2021/03/07 11:20:12;;;;;;;7.20;5.80;;;8.60;54.90;;;;;;4993823;28;20846;-68
2021/03/07 11:22:38;;;;;;;6.70;5.37;;;8.70;54.70;;;;;;5011637;28;20655;-69
2021/03/07 11:25:05;;;;;;;5.93;5.13;;;8.80;54.30;;;;;;5011117;28;20428;-69
2021/03/07 11:27:31;;;;;;;7.03;5.73;;;9.00;54.50;;;;;;5011658;28;20415;-68
2021/03/07 11:29:56;;;;;;;6.93;5.70;;;9.10;53.60;;;;;;5010945;28;20423;-70
2021/03/07 11:32:22;;;;;;;7.53;5.57;;;9.20;53.90;;;;;;5011230;28;20212;-68
2021/03/07 11:34:48;;;;;;;7.03;4.97;;;9.40;52.70;;;;;;5010518;28;20759;-70
2021/03/07 11:37:13;;;;;;;7.27;5.07;;;9.80;54.60;;;;;;5010996;28;20546;-67
2021/03/07 11:39:39;;;;;;;8.07;5.60;;;10.10;52.50;;;;;;5011128;28;20184;-66
2021/03/07 11:42:06;;;;;;;7.43;5.93;;;10.20;51.90;;;;;;5010814;28;20640;-68
2021/03/07 11:44:32;;;;;;;7.00;5.73;;;10.50;51.10;;;;;;5011052;28;20230;-66
2021/03/07 11:46:57;;;;;;;8.33;5.47;;;10.70;51.10;;;;;;5011154;28;20177;-67
2021/03/07 11:49:23;;;;;;;6.77;5.50;;;10.80;50.00;;;;;;5011949;28;20733;-66
2021/03/07 11:51:49;;;;;;;6.37;5.17;;;10.60;48.60;;;;;;5011302;28;20188;-68
2021/03/07 11:54:14;;;;;;;8.00;6.07;;;10.60;49.50;;;;;;5010808;28;20623;-66
2021/03/07 11:56:40;;;;;;;8.33;6.60;;;10.50;49.40;;;;;;5011053;28;20181;-67
2021/03/07 11:59:07;;;;;;;7.17;5.43;;;10.60;50.20;;;;;;5010936;28;20257;-66
2021/03/07 12:01:32;;;;;;;7.60;5.87;;;10.80;51.00;;;;;;5010921;28;20294;-66
2021/03/07 12:03:58;;;;;;;7.87;5.83;;;11.10;51.20;;;;;;5010978;28;20323;-67
2021/03/07 12:06:24;;;;;;;8.40;6.47;;;11.00;47.70;;;;;;5010270;28;20570;-68
2021/03/07 12:08:50;;;;;;;9.17;5.97;;;11.30;48.80;;;;;;5010907;28;20196;-67
2021/03/07 12:11:17;;;;;;;8.23;6.57;;;11.50;48.30;;;;;;5010602;28;20189;-69
2021/03/07 12:13:43;;;;;;;7.47;6.23;;;11.70;46.70;;;;;;5010881;28;20279;-68
2021/03/07 12:16:08;;;;;;;8.33;6.30;;;11.90;49.50;;;;;;4993114;28;20342;-66
2021/03/07 12:18:38;;;;;;;7.50;6.37;;;12.30;47.60;;;;;;5010672;28;20215;-67
2021/03/07 12:21:05;;;;;;;7.83;6.30;;;12.70;47.40;;;;;;5010618;28;20196;-68
2021/03/07 12:23:31;;;;;;;9.20;6.47;;;12.90;46.60;;;;;;5010312;28;20176;-67
2021/03/07 12:25:57;;;;;;;7.23;6.50;;;13.40;44.50;;;;;;5010892;28;20207;-67
2021/03/07 12:28:24;;;;;;;7.43;6.57;;;13.90;43.00;;;;;;5010750;28;20184;-68
2021/03/07 12:30:49;;;;;;;8.87;6.33;;;13.60;38.10;;;;;;5010843;28;20172;-67
2021/03/07 12:33:15;;;;;;;7.93;6.37;;;13.40;40.30;;;;;;5010888;28;20219;-67
2021/03/07 12:35:41;;;;;;;8.47;6.93;;;13.40;41.80;;;;;;5011012;28;20612;-66
2021/03/07 12:38:06;;;;;;;8.07;6.87;;;13.30;43.50;;;;;;5010875;28;20286;-67
2021/03/07 12:40:32;;;;;;;7.47;6.77;;;13.80;41.30;;;;;;5010974;28;20287;-69
2021/03/07 12:42:58;;;;;;;9.67;6.83;;;14.20;41.90;;;;;;4993252;28;20200;-70
2021/03/07 12:45:23;;;;;;;10.17;7.47;;;13.80;39.80;;;;;;5012435;28;20574;-69
2021/03/07 12:47:49;;;;;;;9.13;7.60;;;13.70;41.50;;;;;;5014879;28;20195;-66
2021/03/07 12:50:15;;;;;;;8.13;6.80;;;13.60;41.60;;;;;;5014774;28;20224;-68
2021/03/07 12:52:40;;;;;;;7.80;7.10;;;13.80;41.30;;;;;;5014299;28;20679;-67
2021/03/07 12:55:06;;;;;;;7.07;6.37;;;14.20;41.20;;;;;;5014496;28;20184;-70
2021/03/07 12:57:32;;;;;;;7.70;6.47;;;14.70;38.90;;;;;;5014626;28;20215;-68
2021/03/07 12:59:58;;;;;;;7.70;6.90;;;15.00;37.20;;;;;;5014344;28;20222;-69
2021/03/07 13:02:23;;;;;;;9.17;7.73;;;14.00;37.70;;;;;;5014091;28;20185;-70